sensor_id;sensor_type;location;lat;lon;timestamp;P1;durP1;ratioP1;P2;durP2;ratioP2
48034;SDS011;33812;46.480;6.834;2023-01-31T06:07:40;1.33;;;0.88;;
48034;SDS011;33812;46.480;6.834;2023-01-31T06:11:42;1.27;;;0.63;;
48034;SDS011;33812;46.480;6.834;2023-01-31T06:15:43;3.92;;;0.70;;
48034;SDS011;33812;46.480;6.834;2023-01-31T06:19:45;0.90;;;0.82;;
48034;SDS011;33812;46.480;6.834;2023-01-31T06:23:48;1.50;;;0.90;;
48034;SDS011;33812;46.480;6.834;2023-01-31T06:27:50;6.40;;;1.10;;
48034;SDS011;33812;46.480;6.834;2023-01-31T06:31:52;2.05;;;0.60;;
48034;SDS011;33812;46.480;6.834;2023-01-31T06:35:57;0.80;;;0.80;;
48034;SDS011;33812;46.480;6.834;2023-01-31T06:40:00;1.10;;;1.00;;
48034;SDS011;33812;46.480;6.834;2023-01-31T06:44:02;1.38;;;0.95;;
48034;SDS011;33812;46.480;6.834;2023-01-31T06:48:04;2.92;;;0.95;;
48034;SDS011;33812;46.480;6.834;2023-01-31T06:52:06;1.13;;;0.90;;
48034;SDS011;33812;46.480;6.834;2023-01-31T06:56:09;1.25;;;0.90;;
48034;SDS011;33812;46.480;6.834;2023-01-31T07:00:11;10.15;;;1.20;;
48034;SDS011;33812;46.480;6.834;2023-01-31T07:04:13;0.80;;;0.80;;
48034;SDS011;33812;46.480;6.834;2023-01-31T07:08:15;1.00;;;0.70;;
48034;SDS011;33812;46.480;6.834;2023-01-31T07:12:18;3.63;;;0.98;;
48034;SDS011;33812;46.480;6.834;2023-01-31T07:16:20;2.65;;;1.00;;
48034;SDS011;33812;46.480;6.834;2023-01-31T07:20:24;1.10;;;0.80;;
48034;SDS011;33812;46.480;6.834;2023-01-31T07:24:26;1.00;;;0.85;;
48034;SDS011;33812;46.480;6.834;2023-01-31T07:28:29;1.05;;;0.80;;
48034;SDS011;33812;46.480;6.834;2023-01-31T07:32:31;0.90;;;0.80;;
48034;SDS011;33812;46.480;6.834;2023-01-31T07:36:33;0.93;;;0.70;;
48034;SDS011;33812;46.480;6.834;2023-01-31T07:40:35;2.47;;;1.13;;
48034;SDS011;33812;46.480;6.834;2023-01-31T07:44:38;4.63;;;0.82;;
48034;SDS011;33812;46.480;6.834;2023-01-31T07:48:40;2.00;;;0.90;;
48034;SDS011;33812;46.480;6.834;2023-01-31T07:52:42;1.00;;;0.60;;
48034;SDS011;33812;46.480;6.834;2023-01-31T07:56:43;5.22;;;0.73;;
48034;SDS011;33812;46.480;6.834;2023-01-31T08:00:47;0.73;;;0.73;;
48034;SDS011;33812;46.480;6.834;2023-01-31T08:05:07;0.73;;;0.73;;
48034;SDS011;33812;46.480;6.834;2023-01-31T08:09:10;1.30;;;0.80;;
48034;SDS011;33812;46.480;6.834;2023-01-31T08:13:12;0.95;;;0.85;;
48034;SDS011;33812;46.480;6.834;2023-01-31T08:17:15;0.68;;;0.55;;
48034;SDS011;33812;46.480;6.834;2023-01-31T08:21:18;2.55;;;0.80;;
48034;SDS011;33812;46.480;6.834;2023-01-31T08:25:20;1.00;;;0.80;;
48034;SDS011;33812;46.480;6.834;2023-01-31T08:29:22;1.20;;;0.70;;
48034;SDS011;33812;46.480;6.834;2023-01-31T08:33:25;1.08;;;0.80;;
48034;SDS011;33812;46.480;6.834;2023-01-31T08:37:27;1.13;;;1.02;;
48034;SDS011;33812;46.480;6.834;2023-01-31T08:41:31;0.57;;;0.57;;
48034;SDS011;33812;46.480;6.834;2023-01-31T08:49:37;0.90;;;0.80;;
48034;SDS011;33812;46.480;6.834;2023-01-31T08:53:39;0.90;;;0.80;;
48034;SDS011;33812;46.480;6.834;2023-01-31T08:57:43;1.25;;;0.75;;
48034;SDS011;33812;46.480;6.834;2023-01-31T09:01:45;1.67;;;0.75;;
48034;SDS011;33812;46.480;6.834;2023-01-31T09:05:48;1.27;;;0.80;;
48034;SDS011;33812;46.480;6.834;2023-01-31T09:09:50;0.85;;;0.85;;
48034;SDS011;33812;46.480;6.834;2023-01-31T09:13:51;3.80;;;1.00;;
48034;SDS011;33812;46.480;6.834;2023-01-31T09:17:53;0.63;;;0.63;;
48034;SDS011;33812;46.480;6.834;2023-01-31T09:21:56;10.50;;;1.02;;
48034;SDS011;33812;46.480;6.834;2023-01-31T09:25:58;14.10;;;1.02;;
48034;SDS011;33812;46.480;6.834;2023-01-31T09:30:00;14.82;;;0.80;;
48034;SDS011;33812;46.480;6.834;2023-01-31T09:34:02;13.65;;;1.10;;
48034;SDS011;33812;46.480;6.834;2023-01-31T09:38:05;4.18;;;0.90;;
48034;SDS011;33812;46.480;6.834;2023-01-31T09:42:08;9.90;;;1.50;;
48034;SDS011;33812;46.480;6.834;2023-01-31T09:46:18;3.88;;;1.27;;
48034;SDS011;33812;46.480;6.834;2023-01-31T09:50:26;4.85;;;1.48;;
48034;SDS011;33812;46.480;6.834;2023-01-31T09:54:36;10.20;;;1.60;;
48034;SDS011;33812;46.480;6.834;2023-01-31T09:58:41;7.00;;;1.30;;
48034;SDS011;33812;46.480;6.834;2023-01-31T10:03:01;3.20;;;1.30;;
48034;SDS011;33812;46.480;6.834;2023-01-31T10:07:19;8.90;;;1.80;;
48034;SDS011;33812;46.480;6.834;2023-01-31T10:11:33;7.78;;;1.85;;
48034;SDS011;33812;46.480;6.834;2023-01-31T10:15:40;9.77;;;2.00;;
48034;SDS011;33812;46.480;6.834;2023-01-31T10:19:48;13.80;;;1.45;;
48034;SDS011;33812;46.480;6.834;2023-01-31T10:23:56;6.05;;;1.50;;
48034;SDS011;33812;46.480;6.834;2023-01-31T10:28:05;14.02;;;1.65;;
48034;SDS011;33812;46.480;6.834;2023-01-31T10:32:14;8.23;;;1.27;;
48034;SDS011;33812;46.480;6.834;2023-01-31T10:36:23;2.03;;;1.02;;
48034;SDS011;33812;46.480;6.834;2023-01-31T10:40:33;5.93;;;1.60;;
48034;SDS011;33812;46.480;6.834;2023-01-31T10:44:49;4.38;;;1.70;;
48034;SDS011;33812;46.480;6.834;2023-01-31T10:48:53;3.63;;;1.48;;
48034;SDS011;33812;46.480;6.834;2023-01-31T10:52:59;5.18;;;1.48;;
48034;SDS011;33812;46.480;6.834;2023-01-31T10:57:15;1.70;;;1.13;;
48034;SDS011;33812;46.480;6.834;2023-01-31T11:01:19;3.97;;;1.40;;
48034;SDS011;33812;46.480;6.834;2023-01-31T11:05:21;3.30;;;1.27;;
48034;SDS011;33812;46.480;6.834;2023-01-31T11:09:26;3.58;;;1.10;;
48034;SDS011;33812;46.480;6.834;2023-01-31T11:13:31;4.00;;;1.25;;
48034;SDS011;33812;46.480;6.834;2023-01-31T11:17:35;3.17;;;1.25;;
48034;SDS011;33812;46.480;6.834;2023-01-31T11:21:37;6.43;;;3.97;;
48034;SDS011;33812;46.480;6.834;2023-01-31T11:25:44;6.88;;;1.30;;
48034;SDS011;33812;46.480;6.834;2023-01-31T11:29:48;2.05;;;1.10;;
48034;SDS011;33812;46.480;6.834;2023-01-31T11:33:59;7.07;;;1.30;;
48034;SDS011;33812;46.480;6.834;2023-01-31T11:38:02;4.25;;;1.30;;
48034;SDS011;33812;46.480;6.834;2023-01-31T11:42:19;3.20;;;1.30;;
48034;SDS011;33812;46.480;6.834;2023-01-31T11:46:21;1.50;;;1.10;;
48034;SDS011;33812;46.480;6.834;2023-01-31T11:50:25;3.35;;;1.15;;
48034;SDS011;33812;46.480;6.834;2023-01-31T11:54:32;5.40;;;1.00;;
48034;SDS011;33812;46.480;6.834;2023-01-31T11:58:35;1.98;;;1.10;;
48034;SDS011;33812;46.480;6.834;2023-01-31T12:02:39;3.03;;;1.23;;
48034;SDS011;33812;46.480;6.834;2023-01-31T12:06:53;1.70;;;1.05;;
48034;SDS011;33812;46.480;6.834;2023-01-31T12:10:57;1.83;;;0.98;;
48034;SDS011;33812;46.480;6.834;2023-01-31T12:15:01;3.45;;;0.90;;
48034;SDS011;33812;46.480;6.834;2023-01-31T12:19:07;3.83;;;1.08;;
48034;SDS011;33812;46.480;6.834;2023-01-31T12:23:23;3.58;;;0.93;;
48034;SDS011;33812;46.480;6.834;2023-01-31T12:27:34;2.53;;;0.90;;
48034;SDS011;33812;46.480;6.834;2023-01-31T12:31:49;0.88;;;0.70;;
48034;SDS011;33812;46.480;6.834;2023-01-31T12:36:16;2.70;;;0.93;;
48034;SDS011;33812;46.480;6.834;2023-01-31T12:40:35;1.75;;;1.00;;
48034;SDS011;33812;46.480;6.834;2023-01-31T12:44:41;2.53;;;0.90;;
48034;SDS011;33812;46.480;6.834;2023-01-31T12:53:20;2.15;;;1.10;;
48034;SDS011;33812;46.480;6.834;2023-01-31T12:57:34;1.55;;;1.08;;
48034;SDS011;33812;46.480;6.834;2023-01-31T13:01:45;2.13;;;1.00;;
48034;SDS011;33812;46.480;6.834;2023-01-31T13:05:53;0.93;;;0.90;;
48034;SDS011;33812;46.480;6.834;2023-01-31T13:09:59;1.42;;;0.90;;
48034;SDS011;33812;46.480;6.834;2023-01-31T13:14:08;1.10;;;0.90;;
48034;SDS011;33812;46.480;6.834;2023-01-31T13:18:14;0.75;;;0.75;;
48034;SDS011;33812;46.480;6.834;2023-01-31T13:22:17;2.05;;;1.15;;
48034;SDS011;33812;46.480;6.834;2023-01-31T13:26:24;1.10;;;0.80;;
48034;SDS011;33812;46.480;6.834;2023-01-31T13:30:32;1.63;;;0.98;;
48034;SDS011;33812;46.480;6.834;2023-01-31T13:34:38;1.10;;;1.00;;
48034;SDS011;33812;46.480;6.834;2023-01-31T16:09:55;1.90;;;1.27;;
48034;SDS011;33812;46.480;6.834;2023-01-31T16:13:57;2.25;;;1.33;;
48034;SDS011;33812;46.480;6.834;2023-01-31T16:18:01;2.05;;;1.48;;
48034;SDS011;33812;46.480;6.834;2023-01-31T16:22:03;4.15;;;1.30;;
48034;SDS011;33812;46.480;6.834;2023-01-31T16:26:25;2.20;;;1.40;;
48034;SDS011;33812;46.480;6.834;2023-01-31T16:30:28;4.75;;;1.48;;
48034;SDS011;33812;46.480;6.834;2023-01-31T16:34:31;3.08;;;1.40;;
48034;SDS011;33812;46.480;6.834;2023-01-31T16:38:35;1.80;;;1.40;;
48034;SDS011;33812;46.480;6.834;2023-01-31T16:42:41;1.92;;;1.48;;
48034;SDS011;33812;46.480;6.834;2023-01-31T16:46:43;2.13;;;1.73;;
48034;SDS011;33812;46.480;6.834;2023-01-31T16:50:46;2.13;;;1.50;;
48034;SDS011;33812;46.480;6.834;2023-01-31T16:54:48;2.25;;;1.70;;
48034;SDS011;33812;46.480;6.834;2023-01-31T16:58:54;1.88;;;1.65;;
48034;SDS011;33812;46.480;6.834;2023-01-31T17:02:57;6.75;;;1.80;;
48034;SDS011;33812;46.480;6.834;2023-01-31T17:07:01;4.70;;;1.60;;
48034;SDS011;33812;46.480;6.834;2023-01-31T17:11:05;3.17;;;1.40;;
48034;SDS011;33812;46.480;6.834;2023-01-31T17:15:12;4.28;;;1.58;;
48034;SDS011;33812;46.480;6.834;2023-01-31T17:19:15;2.43;;;1.20;;
48034;SDS011;33812;46.480;6.834;2023-01-31T17:23:17;2.75;;;1.40;;
48034;SDS011;33812;46.480;6.834;2023-01-31T17:27:19;6.05;;;1.70;;
48034;SDS011;33812;46.480;6.834;2023-01-31T17:31:22;3.13;;;1.75;;
48034;SDS011;33812;46.480;6.834;2023-01-31T17:35:29;1.80;;;1.40;;
48034;SDS011;33812;46.480;6.834;2023-01-31T17:39:35;5.88;;;1.60;;
48034;SDS011;33812;46.480;6.834;2023-01-31T17:43:36;3.17;;;1.60;;
48034;SDS011;33812;46.480;6.834;2023-01-31T17:47:40;3.63;;;1.73;;
48034;SDS011;33812;46.480;6.834;2023-01-31T17:51:41;2.35;;;1.50;;
48034;SDS011;33812;46.480;6.834;2023-01-31T17:55:44;1.73;;;1.30;;
48034;SDS011;33812;46.480;6.834;2023-01-31T17:59:46;4.85;;;1.48;;
48034;SDS011;33812;46.480;6.834;2023-01-31T18:03:49;4.93;;;1.60;;
48034;SDS011;33812;46.480;6.834;2023-01-31T18:07:50;3.00;;;1.70;;
48034;SDS011;33812;46.480;6.834;2023-01-31T18:11:52;2.08;;;1.50;;
48034;SDS011;33812;46.480;6.834;2023-01-31T18:16:00;3.08;;;2.00;;
48034;SDS011;33812;46.480;6.834;2023-01-31T18:20:04;2.60;;;1.42;;
48034;SDS011;33812;46.480;6.834;2023-01-31T18:24:08;2.45;;;1.60;;
48034;SDS011;33812;46.480;6.834;2023-01-31T18:28:11;2.03;;;1.30;;
48034;SDS011;33812;46.480;6.834;2023-01-31T18:32:12;6.35;;;2.15;;
48034;SDS011;33812;46.480;6.834;2023-01-31T18:36:16;10.25;;;2.10;;
48034;SDS011;33812;46.480;6.834;2023-01-31T18:40:19;8.93;;;2.10;;
48034;SDS011;33812;46.480;6.834;2023-01-31T18:44:21;15.52;;;2.08;;
48034;SDS011;33812;46.480;6.834;2023-01-31T18:48:23;7.75;;;1.92;;
48034;SDS011;33812;46.480;6.834;2023-01-31T18:52:26;7.53;;;2.00;;
48034;SDS011;33812;46.480;6.834;2023-01-31T18:56:29;5.13;;;2.00;;
48034;SDS011;33812;46.480;6.834;2023-01-31T19:00:30;6.20;;;1.77;;
48034;SDS011;33812;46.480;6.834;2023-01-31T19:04:32;5.60;;;1.90;;
48034;SDS011;33812;46.480;6.834;2023-01-31T19:08:35;2.83;;;1.52;;
48034;SDS011;33812;46.480;6.834;2023-01-31T19:12:37;5.40;;;2.08;;
48034;SDS011;33812;46.480;6.834;2023-01-31T19:16:39;4.47;;;1.77;;
48034;SDS011;33812;46.480;6.834;2023-01-31T19:20:43;5.80;;;1.90;;
48034;SDS011;33812;46.480;6.834;2023-01-31T19:24:46;7.20;;;1.88;;
48034;SDS011;33812;46.480;6.834;2023-01-31T19:28:48;3.08;;;1.90;;
48034;SDS011;33812;46.480;6.834;2023-01-31T19:32:50;4.25;;;2.13;;
48034;SDS011;33812;46.480;6.834;2023-01-31T19:36:51;5.65;;;1.90;;
48034;SDS011;33812;46.480;6.834;2023-01-31T19:41:03;2.67;;;1.52;;
48034;SDS011;33812;46.480;6.834;2023-01-31T19:45:06;3.15;;;1.70;;
48034;SDS011;33812;46.480;6.834;2023-01-31T19:49:10;3.35;;;1.50;;
48034;SDS011;33812;46.480;6.834;2023-01-31T19:53:12;4.80;;;1.70;;
48034;SDS011;33812;46.480;6.834;2023-01-31T19:57:15;4.88;;;1.75;;
48034;SDS011;33812;46.480;6.834;2023-01-31T20:01:17;2.00;;;1.50;;
48034;SDS011;33812;46.480;6.834;2023-01-31T20:05:19;2.72;;;1.50;;
48034;SDS011;33812;46.480;6.834;2023-01-31T20:09:20;3.25;;;1.45;;
48034;SDS011;33812;46.480;6.834;2023-01-31T20:13:24;4.72;;;1.90;;
48034;SDS011;33812;46.480;6.834;2023-01-31T20:17:25;2.38;;;1.20;;
48034;SDS011;33812;46.480;6.834;2023-01-31T20:21:27;2.28;;;1.25;;
48034;SDS011;33812;46.480;6.834;2023-01-31T20:25:29;2.90;;;1.65;;
48034;SDS011;33812;46.480;6.834;2023-01-31T20:29:32;3.50;;;1.38;;
48034;SDS011;33812;46.480;6.834;2023-01-31T20:33:34;3.78;;;1.70;;
48034;SDS011;33812;46.480;6.834;2023-01-31T20:37:36;2.38;;;1.30;;
48034;SDS011;33812;46.480;6.834;2023-01-31T20:41:39;3.30;;;1.90;;
48034;SDS011;33812;46.480;6.834;2023-01-31T20:45:42;2.35;;;1.52;;
48034;SDS011;33812;46.480;6.834;2023-01-31T20:49:44;4.18;;;1.33;;
48034;SDS011;33812;46.480;6.834;2023-01-31T20:53:47;2.33;;;1.30;;
48034;SDS011;33812;46.480;6.834;2023-01-31T20:57:49;3.25;;;1.52;;
48034;SDS011;33812;46.480;6.834;2023-01-31T21:01:52;3.53;;;1.38;;
48034;SDS011;33812;46.480;6.834;2023-01-31T21:05:55;4.28;;;2.20;;
48034;SDS011;33812;46.480;6.834;2023-01-31T21:09:57;2.70;;;1.55;;
48034;SDS011;33812;46.480;6.834;2023-01-31T21:13:59;2.17;;;1.40;;
48034;SDS011;33812;46.480;6.834;2023-01-31T21:18:02;2.95;;;1.60;;
48034;SDS011;33812;46.480;6.834;2023-01-31T21:22:04;2.00;;;1.45;;
48034;SDS011;33812;46.480;6.834;2023-01-31T21:26:06;2.00;;;1.17;;
48034;SDS011;33812;46.480;6.834;2023-01-31T21:30:10;2.60;;;1.40;;
48034;SDS011;33812;46.480;6.834;2023-01-31T21:34:13;2.80;;;1.30;;
48034;SDS011;33812;46.480;6.834;2023-01-31T21:38:15;1.90;;;1.30;;
48034;SDS011;33812;46.480;6.834;2023-01-31T21:42:16;1.67;;;1.20;;
48034;SDS011;33812;46.480;6.834;2023-01-31T21:46:20;1.77;;;1.33;;
48034;SDS011;33812;46.480;6.834;2023-01-31T21:50:23;3.15;;;1.35;;
48034;SDS011;33812;46.480;6.834;2023-01-31T21:54:25;3.35;;;1.42;;
48034;SDS011;33812;46.480;6.834;2023-01-31T21:58:27;2.40;;;1.65;;
48034;SDS011;33812;46.480;6.834;2023-01-31T22:02:29;2.53;;;1.38;;
48034;SDS011;33812;46.480;6.834;2023-01-31T22:06:34;2.00;;;1.33;;
48034;SDS011;33812;46.480;6.834;2023-01-31T22:10:37;2.13;;;1.20;;
48034;SDS011;33812;46.480;6.834;2023-01-31T22:14:38;2.13;;;1.35;;
48034;SDS011;33812;46.480;6.834;2023-01-31T22:18:41;2.38;;;1.70;;
48034;SDS011;33812;46.480;6.834;2023-01-31T22:22:44;1.60;;;1.38;;
48034;SDS011;33812;46.480;6.834;2023-01-31T22:26:47;2.47;;;1.80;;
48034;SDS011;33812;46.480;6.834;2023-01-31T22:30:52;2.35;;;1.42;;
48034;SDS011;33812;46.480;6.834;2023-01-31T22:34:55;3.08;;;1.52;;
48034;SDS011;33812;46.480;6.834;2023-01-31T22:38:59;2.60;;;1.48;;
48034;SDS011;33812;46.480;6.834;2023-01-31T22:43:01;1.80;;;1.40;;
48034;SDS011;33812;46.480;6.834;2023-01-31T22:47:02;2.15;;;1.40;;
48034;SDS011;33812;46.480;6.834;2023-01-31T22:51:08;2.22;;;1.55;;
48034;SDS011;33812;46.480;6.834;2023-01-31T22:55:13;2.80;;;1.42;;
48034;SDS011;33812;46.480;6.834;2023-01-31T22:59:17;2.35;;;1.33;;
48034;SDS011;33812;46.480;6.834;2023-01-31T23:03:32;2.25;;;1.10;;
48034;SDS011;33812;46.480;6.834;2023-01-31T23:07:40;1.35;;;1.25;;
48034;SDS011;33812;46.480;6.834;2023-01-31T23:11:43;1.38;;;1.00;;
48034;SDS011;33812;46.480;6.834;2023-01-31T23:15:46;1.55;;;1.13;;
48034;SDS011;33812;46.480;6.834;2023-01-31T23:19:56;1.50;;;1.20;;
48034;SDS011;33812;46.480;6.834;2023-01-31T23:23:58;1.58;;;1.17;;
48034;SDS011;33812;46.480;6.834;2023-01-31T23:28:03;1.95;;;1.40;;
48034;SDS011;33812;46.480;6.834;2023-01-31T23:41:22;1.67;;;1.25;;
48034;SDS011;33812;46.480;6.834;2023-01-31T23:49:39;2.50;;;1.42;;
48034;SDS011;33812;46.480;6.834;2023-01-31T23:53:46;3.05;;;1.38;;
48034;SDS011;33812;46.480;6.834;2023-01-31T23:57:48;1.55;;;1.10;;
